Berthold, ND (58718)

4:48 AM CST on December 28, 2014 (GMT -0600)
Minot Air Force Base | Change Station
CLOSE
Current Station
Airport
Location: Minot AFB,
Elevation: 1667 ft
Nearby Weather Stations
Active Advisory: Wind Chill Advisory

Elev 1667 ft 48.42 °N, 101.36 °W | Updated 50 minutes ago

Overcast
Overcast
-3 °F
Feels Like -17 °F
N
8
Wind Variable Wind from NNE

Today
High -- | Low -- °F
--% Chance of Precip.
Yesterday
High -- | Low -- °F
Precip. -- in
8:38 AM 4:59 PM
Waxing Crescent, 46% visible
Pressure 30.24 in
Visibility 10.0 miles
Clouds Overcast 10000 ft
Windchill -17 °F
Dew Point -8 °F
Humidity 78%
Rainfall 0.00 in
Snow Depth Not available.
UV 0 out of 12
Pollen .10 out of 12
Air Quality Not available.
Flu Activity Not available.
METAR KMIB 280958Z AUTO 02007KT 10SM OVC100 M19/M22 A3011 RMK AO2 SLP240 T11921221 $

More Conditions Fewer Conditions

Pressure 30.24 in
Visibility 10.0 miles
Clouds Overcast 10000 ft
Windchill -17 °F
Dew Point -8 °F
Humidity 78%
Rainfall 0.00 in
Snow Depth Not available.
UV 0 out of 12
Pollen .10 out of 12
Air Quality Not available.
Flu Activity Not available.
METAR KMIB 280958Z AUTO 02007KT 10SM OVC100 M19/M22 A3011 RMK AO2 SLP240 T11921221 $

More Conditions Fewer Conditions

10-Day Weather Forecast

Almanac

Astronomy

Dec. 28, 2014 Rise Set
Actual Time
Civil Twilight
Nautical Twilight
Astronomical Twilight
Moon
Length of Visible Light
Length of Day
Tomorrow will be .
, % of the Moon is Illuminated

Today's Extremes

State Highs State Lows

Community

WunderPhotos

Upload Photos

1,781,232 photos uploaded!

WunderBlogs® & News

Nearby

Air Quality

  Air Quality AQ Index Pollutant
Not available.

Snow Depth

Station Depth Elevation

Earthquake Activity

City Distance Mag. Time & Date
Minimum magnitude displayed is 2.5.

Coastal Water Temperatures

Place Temperature

Nearby Weather Stations